Time;durP1;ratioP1;P1;durP2;ratioP2;P2;SDS_P1;SDS_P2;PMS_P1;PMS_P2;Temp;Humidity;BMP_temperature;BMP_pressure;BME280_temperature;BME280_humidity;BME280_pressure;Samples;Min_cycle;Max_cycle;Signal;HPM_P1;HPM_P2
2022/06/04 00:00:46;;;;;;;4.35;2.30;;;;;;;19.93;47.60;101758.97;5092196;28;20041;-64
2022/06/04 00:03:12;;;;;;;3.30;2.08;;;;;;;19.93;47.65;101758.09;5092646;28;20024;-64
2022/06/04 00:05:40;;;;;;;3.80;2.15;;;;;;;19.92;47.75;101761.72;5092829;28;20026;-63
2022/06/04 00:08:08;;;;;;;3.97;2.20;;;;;;;19.92;47.57;101754.63;5091626;28;20028;-64
2022/06/04 00:16:09;;;;;;;4.32;2.45;;;;;;;19.90;47.54;101745.09;5092463;28;20101;-65
2022/06/04 00:18:35;;;;;;;3.25;1.85;;;;;;;19.90;47.45;101755.69;5091520;28;20029;-64
2022/06/04 00:21:01;;;;;;;3.50;2.00;;;;;;;19.89;47.61;101746.91;5091712;28;20020;-64
2022/06/04 00:23:26;;;;;;;4.10;2.08;;;;;;;19.89;47.55;101749.56;5092533;28;20024;-65
2022/06/04 00:25:55;;;;;;;3.55;2.25;;;;;;;19.90;47.59;101751.25;5092229;28;20388;-64
2022/06/04 00:28:22;;;;;;;3.15;1.73;;;;;;;19.89;47.67;101756.66;5091795;28;20027;-64
2022/06/04 00:30:48;;;;;;;4.40;2.08;;;;;;;19.88;47.62;101760.25;5092468;28;20105;-63
2022/06/04 00:33:15;;;;;;;3.47;1.80;;;;;;;19.90;47.43;101760.97;5092407;28;20056;-63
2022/06/04 00:35:44;;;;;;;3.90;2.40;;;;;;;19.87;47.42;101767.34;5091718;28;20027;-64
2022/06/04 00:38:12;;;;;;;3.65;1.83;;;;;;;19.87;47.65;101769.16;5091989;28;20077;-63
2022/06/04 00:40:56;;;;;;;3.78;2.00;;;;;;;19.87;47.40;101756.78;5092674;28;20054;-66
2022/06/04 00:43:22;;;;;;;3.15;1.75;;;;;;;19.88;47.55;101750.50;5091693;28;20024;-64
2022/06/04 00:46:37;;;;;;;3.80;2.00;;;;;;;19.88;47.37;101750.50;5092435;28;20024;-64
2022/06/04 00:49:03;;;;;;;;;;;;;;;19.86;47.42;101752.44;5092374;28;20035;-64
2022/06/04 00:51:31;;;;;;;3.33;1.87;;;;;;;19.86;47.43;101764.81;5093815;28;19916;-64
2022/06/04 00:53:58;;;;;;;3.40;1.70;;;;;;;19.84;47.31;101766.75;5093247;28;20036;-64
2022/06/04 00:56:39;;;;;;;3.40;2.00;;;;;;;19.85;47.36;101777.22;5092504;28;20035;-64
2022/06/04 00:59:08;;;;;;;3.47;1.90;;;;;;;19.85;47.28;101776.34;5094432;28;20059;-63
2022/06/04 01:01:58;;;;;;;3.08;1.73;;;;;;;19.85;47.31;101782.50;5096055;28;20052;-63
2022/06/04 01:05:00;;;;;;;3.22;1.90;;;;;;;19.84;47.28;101796.69;5095368;28;20100;-64
2022/06/04 01:07:35;;;;;;;3.90;1.77;;;;;;;19.84;47.26;101799.31;5095620;28;20024;-65
2022/06/04 01:10:31;;;;;;;3.80;1.95;;;;;;;19.84;47.30;101811.72;5094800;28;20076;-64
2022/06/04 01:13:31;;;;;;;4.43;1.90;;;;;;;19.83;47.37;101800.28;5095331;28;20028;-64
2022/06/04 01:16:22;;;;;;;2.53;1.52;;;;;;;19.82;47.25;101798.59;5095133;28;20035;-64
2022/06/04 01:18:58;;;;;;;3.58;1.70;;;;;;;19.82;47.25;101797.75;5095692;28;20028;-63
2022/06/04 01:21:42;;;;;;;3.42;1.67;;;;;;;19.82;47.19;101800.38;5095453;28;20096;-65
2022/06/04 01:24:26;;;;;;;3.95;1.75;;;;;;;19.82;47.14;101803.03;5094546;28;20036;-64
2022/06/04 01:27:09;;;;;;;3.67;1.77;;;;;;;19.82;47.19;101809.19;5094902;28;20081;-65
2022/06/04 01:29:57;;;;;;;2.50;1.52;;;;;;;19.81;47.19;101810.13;5095258;28;20035;-64
2022/06/04 01:32:30;;;;;;;2.85;1.67;;;;;;;19.81;47.28;101811.94;5094033;28;20036;-64
2022/06/04 01:35:13;;;;;;;3.10;1.65;;;;;;;19.81;46.99;101809.28;5094746;28;20040;-64
2022/06/04 01:37:50;;;;;;;2.72;1.77;;;;;;;19.81;47.23;101812.78;5094634;28;20449;-64
2022/06/04 01:43:08;;;;;;;5.10;1.80;;;;;;;19.80;47.20;101808.44;5095137;28;20122;-64
2022/06/04 01:45:35;;;;;;;3.03;1.80;;;;;;;19.78;47.01;101823.56;5094344;28;20030;-64
2022/06/04 01:48:02;;;;;;;3.22;1.70;;;;;;;19.79;46.97;101830.56;5094953;28;20062;-65
2022/06/04 01:50:35;;;;;;;2.92;1.60;;;;;;;19.79;47.22;101837.63;5094886;28;20112;-64
2022/06/04 01:53:05;;;;;;;2.47;1.50;;;;;;;19.77;46.93;101836.91;5093793;28;20031;-64
2022/06/04 01:55:41;;;;;;;3.67;1.80;;;;;;;19.79;47.02;101845.56;5093181;28;20117;-64
2022/06/04 01:58:14;;;;;;;4.22;1.58;;;;;;;19.78;46.98;101843.91;5094649;28;20050;-67
2022/06/04 02:00:47;;;;;;;3.42;1.70;;;;;;;19.78;47.11;101842.09;5094123;28;20149;-64
2022/06/04 02:03:18;;;;;;;3.60;1.65;;;;;;;19.77;46.94;101837.75;5094469;28;20026;-64
2022/06/04 02:05:55;;;;;;;3.35;1.60;;;;;;;19.77;46.86;101839.56;5094065;28;20028;-64
2022/06/04 02:08:34;;;;;;;3.10;1.80;;;;;;;19.76;46.70;101836.06;5094734;28;20031;-64
2022/06/04 02:11:12;;;;;;;3.47;1.80;;;;;;;19.75;46.77;101843.13;5094100;28;20030;-64
2022/06/04 02:13:39;;;;;;;3.85;1.75;;;;;;;19.75;46.93;101848.41;5093838;28;20379;-65
2022/06/04 02:16:12;;;;;;;3.13;1.60;;;;;;;19.75;47.08;101842.28;5093885;28;20024;-64
2022/06/04 02:18:38;;;;;;;3.03;1.55;;;;;;;19.74;46.90;101841.44;5094538;28;20024;-64
2022/06/04 02:21:04;;;;;;;3.80;1.80;;;;;;;19.73;46.75;101836.25;5093166;28;20459;-64
2022/06/04 02:23:30;;;;;;;2.63;1.60;;;;;;;19.74;47.08;101845.88;5094342;28;20024;-64
2022/06/04 02:25:58;;;;;;;3.65;1.70;;;;;;;19.73;46.84;101845.03;5093933;28;20081;-64
2022/06/04 02:28:24;;;;;;;3.15;1.60;;;;;;;19.72;46.75;101845.97;5093220;28;20036;-64
2022/06/04 02:31:16;;;;;;;3.92;1.65;;;;;;;19.72;47.01;101843.34;5093958;28;20431;-64
2022/06/04 02:34:03;;;;;;;3.58;1.80;;;;;;;19.70;46.75;101829.38;5056513;28;20048;-64
2022/06/04 02:36:46;;;;;;;3.25;1.90;;;;;;;19.71;46.79;101827.56;5093921;28;20539;-64
2022/06/04 02:39:15;;;;;;;3.17;1.50;;;;;;;19.70;46.63;101825.91;5094048;28;20031;-64
2022/06/04 02:42:06;;;;;;;2.88;1.40;;;;;;;19.71;46.72;101824.94;5093474;28;20024;-64
2022/06/04 02:44:41;;;;;;;2.50;1.45;;;;;;;19.71;46.70;101814.34;5093871;28;20066;-64
2022/06/04 02:47:17;;;;;;;3.40;1.80;;;;;;;19.70;46.75;101810.03;5093345;28;20024;-64
2022/06/04 02:50:12;;;;;;;3.28;1.70;;;;;;;19.71;46.72;101798.50;5093088;28;20375;-64
2022/06/04 02:52:38;;;;;;;;;;;;;;;19.68;46.56;101786.34;5076259;28;20064;-64
2022/06/04 02:55:12;;;;;;;3.40;1.50;;;;;;;19.68;46.60;101793.44;5092547;28;19915;-65
2022/06/04 02:57:42;;;;;;;3.15;1.60;;;;;;;19.68;46.68;101785.50;5093696;28;20039;-64
2022/06/04 03:00:10;;;;;;;2.75;1.60;;;;;;;19.67;46.66;101778.53;5093130;28;20027;-64
2022/06/04 03:02:36;;;;;;;3.17;1.70;;;;;;;19.67;46.65;101774.06;5092875;28;20024;-64
2022/06/04 03:05:09;;;;;;;3.00;1.60;;;;;;;19.65;46.49;101765.41;5093378;28;20020;-65
2022/06/04 03:07:38;;;;;;;3.78;1.60;;;;;;;19.65;46.82;101767.22;5093482;28;20031;-64
2022/06/04 03:10:13;;;;;;;4.18;1.58;;;;;;;19.66;46.66;101771.53;5092249;28;20548;-65
2022/06/04 03:12:41;;;;;;;;;;;;;;;19.66;46.76;101776.81;5093982;28;20024;-64
2022/06/04 03:15:09;;;;;;;3.17;1.60;;;;;;;19.65;46.72;101775.16;5092960;28;19926;-65
2022/06/04 03:17:34;;;;;;;4.13;1.80;;;;;;;19.64;46.62;101779.59;5092607;28;20106;-63
2022/06/04 03:20:00;;;;;;;3.20;1.65;;;;;;;19.64;46.41;101778.75;5093129;28;20511;-64
2022/06/04 03:22:25;;;;;;;4.00;1.80;;;;;;;19.64;46.66;101778.75;5092521;28;20310;-65
2022/06/04 03:24:54;;;;;;;3.95;1.60;;;;;;;19.65;46.66;101775.16;5092226;28;20032;-64
2022/06/04 03:27:19;;;;;;;4.60;1.65;;;;;;;19.64;46.65;101765.53;5093242;28;20028;-65
2022/06/04 03:29:47;;;;;;;2.83;1.60;;;;;;;19.64;46.60;101762.88;5092852;28;20020;-64
2022/06/04 03:32:19;;;;;;;2.38;1.50;;;;;;;19.63;46.63;101767.34;5092025;28;20032;-64
2022/06/04 03:34:47;;;;;;;3.10;1.60;;;;;;;19.64;46.62;101770.81;5092668;28;20471;-65
2022/06/04 03:37:12;;;;;;;2.70;1.50;;;;;;;19.62;46.64;101770.94;5092031;28;20032;-65
2022/06/04 03:39:38;;;;;;;2.90;1.55;;;;;;;19.62;46.76;101770.94;5093227;28;20468;-65
2022/06/04 03:42:04;;;;;;;3.53;1.67;;;;;;;19.62;46.70;101778.88;5092670;28;20034;-64
2022/06/04 03:44:29;;;;;;;2.75;1.70;;;;;;;19.60;46.86;101787.84;5092254;28;20039;-64
2022/06/04 03:46:55;;;;;;;3.40;1.60;;;;;;;19.62;46.84;101786.78;5092781;28;20028;-64
2022/06/04 03:49:21;;;;;;;2.92;1.60;;;;;;;19.62;46.74;101788.59;5092848;28;20020;-64
2022/06/04 03:51:49;;;;;;;4.38;1.70;;;;;;;19.61;46.61;101781.63;5092099;28;20068;-64
2022/06/04 03:54:15;;;;;;;3.08;1.60;;;;;;;19.61;46.62;101782.44;5093060;28;20024;-64
2022/06/04 03:56:41;;;;;;;3.47;1.60;;;;;;;19.60;46.68;101788.72;5092648;28;20034;-64
2022/06/04 03:59:06;;;;;;;2.42;1.48;;;;;;;19.59;46.62;101792.31;5091610;28;20036;-64
2022/06/04 04:01:32;;;;;;;3.83;1.90;;;;;;;19.58;46.91;101799.41;5093071;28;20029;-65
2022/06/04 04:03:59;;;;;;;3.63;1.77;;;;;;;19.57;46.72;101792.41;5092559;28;20074;-65
2022/06/04 04:06:32;;;;;;;3.50;1.70;;;;;;;19.60;46.57;101799.28;5092063;28;20024;-64
2022/06/04 04:08:57;;;;;;;3.08;1.55;;;;;;;19.57;46.53;101796.88;5092622;28;20024;-65
2022/06/04 04:11:26;;;;;;;3.60;1.80;;;;;;;19.59;46.75;101797.59;5092753;28;20456;-64
2022/06/04 04:13:52;;;;;;;4.57;1.50;;;;;;;19.58;46.72;101803.81;5091556;28;20132;-64
2022/06/04 04:16:19;;;;;;;3.10;1.60;;;;;;;19.58;46.78;101807.34;5092632;28;20039;-64
2022/06/04 04:18:45;;;;;;;4.00;1.58;;;;;;;19.58;46.72;101817.03;5092487;28;20050;-64
2022/06/04 04:21:16;;;;;;;3.10;1.67;;;;;;;19.55;46.75;101804.91;5091416;28;20484;-65
2022/06/04 04:23:42;;;;;;;3.08;1.80;;;;;;;19.57;46.66;101808.28;5092839;28;20035;-65
2022/06/04 04:26:10;;;;;;;2.92;1.60;;;;;;;19.56;46.73;101811.88;5091652;28;20474;-64
2022/06/04 04:28:37;;;;;;;3.40;1.85;;;;;;;19.56;46.70;101813.69;5092346;28;20052;-64
2022/06/04 04:31:14;;;;;;;2.90;1.60;;;;;;;19.55;46.72;101818.13;5092318;28;20073;-64
2022/06/04 04:33:42;;;;;;;3.47;1.70;;;;;;;19.56;46.73;101814.50;5093130;28;20101;-65
2022/06/04 04:36:08;;;;;;;2.70;1.50;;;;;;;19.53;46.74;101821.81;5096017;28;20028;-64
2022/06/04 04:38:33;;;;;;;2.95;1.50;;;;;;;19.55;46.60;101827.84;5096074;28;20023;-65
2022/06/04 04:40:59;;;;;;;2.92;1.60;;;;;;;19.54;46.75;101832.28;5094369;28;20388;-65
2022/06/04 04:43:24;;;;;;;3.92;1.70;;;;;;;19.56;46.73;101834.81;5096104;28;20137;-64
2022/06/04 04:45:50;;;;;;;2.97;1.75;;;;;;;19.55;46.83;101846.34;5095614;28;20024;-64
2022/06/04 04:48:15;;;;;;;3.08;1.80;;;;;;;19.53;46.63;101838.53;5095455;28;20025;-64
2022/06/04 04:50:46;;;;;;;3.53;1.80;;;;;;;19.54;46.80;101850.81;5096177;28;20093;-64
2022/06/04 04:53:12;;;;;;;3.60;1.50;;;;;;;19.55;46.71;101851.63;5095749;28;20028;-64
2022/06/04 04:55:38;;;;;;;3.38;1.60;;;;;;;19.54;46.82;101842.88;5095008;28;20086;-64
2022/06/04 04:58:05;;;;;;;3.80;1.50;;;;;;;19.54;46.66;101845.50;5095558;28;20383;-63
2022/06/04 05:00:31;;;;;;;3.33;1.80;;;;;;;19.54;46.88;101842.88;5095693;28;20490;-64
2022/06/04 05:02:58;;;;;;;3.13;1.80;;;;;;;19.53;46.92;101842.97;5094618;28;20467;-64
2022/06/04 05:05:23;;;;;;;4.18;2.00;;;;;;;19.54;46.74;101848.16;5095838;28;20111;-65
2022/06/04 05:07:48;;;;;;;2.30;1.42;;;;;;;19.54;46.90;101849.97;5095354;28;20028;-64
2022/06/04 05:10:14;;;;;;;2.75;1.60;;;;;;;19.53;46.62;101846.47;5095013;28;20380;-65
2022/06/04 05:12:40;;;;;;;3.22;1.60;;;;;;;19.53;46.99;101849.09;5095602;28;20081;-64
2022/06/04 05:15:06;;;;;;;3.28;2.00;;;;;;;19.52;46.77;101849.25;5095397;28;20036;-64
2022/06/04 05:17:31;;;;;;;3.38;1.60;;;;;;;19.52;46.77;101855.38;5095034;28;20024;-65
2022/06/04 05:19:57;;;;;;;3.80;2.03;;;;;;;19.53;46.78;101853.56;5095375;28;20020;-65
2022/06/04 05:22:22;;;;;;;4.32;1.95;;;;;;;19.53;46.88;101853.56;5095488;28;20020;-65
2022/06/04 05:24:48;;;;;;;3.90;2.03;;;;;;;19.54;46.75;101858.72;5094908;28;20038;-65
2022/06/04 05:27:19;;;;;;;3.03;1.70;;;;;;;19.54;46.78;101857.91;5095774;28;20012;-64
2022/06/04 05:29:45;;;;;;;3.92;1.73;;;;;;;19.53;46.81;101854.38;5096051;28;20024;-64
2022/06/04 05:32:10;;;;;;;2.80;1.58;;;;;;;19.53;46.92;101858.84;5095083;28;20069;-65
2022/06/04 05:34:36;;;;;;;3.25;1.88;;;;;;;19.54;46.90;101869.31;5095747;28;20132;-64
2022/06/04 05:37:02;;;;;;;2.95;1.60;;;;;;;19.54;46.86;101873.75;5094124;28;20113;-64
2022/06/04 05:39:31;;;;;;;3.20;1.50;;;;;;;19.54;46.87;101869.31;5095096;28;20464;-65
2022/06/04 05:41:57;;;;;;;3.22;1.60;;;;;;;19.54;46.80;101881.69;5093626;28;20032;-64
2022/06/04 05:44:26;;;;;;;3.75;1.80;;;;;;;19.53;46.76;101870.25;5093888;28;20486;-65
2022/06/04 05:46:54;;;;;;;3.05;1.60;;;;;;;19.54;46.96;101876.41;5094818;28;20056;-65
2022/06/04 05:49:22;;;;;;;3.47;1.73;;;;;;;19.54;46.83;101873.75;5094835;28;20463;-64
2022/06/04 05:51:49;;;;;;;3.17;1.95;;;;;;;19.54;46.92;101879.88;5094210;28;20074;-64
2022/06/04 05:54:15;;;;;;;3.88;2.03;;;;;;;19.53;46.94;101883.47;5094859;28;20028;-64
2022/06/04 05:56:44;;;;;;;2.97;1.58;;;;;;;19.54;46.76;101881.69;5094584;28;20031;-63
2022/06/04 05:59:15;;;;;;;4.53;2.00;;;;;;;19.54;46.82;101879.88;5094932;28;20035;-68
2022/06/04 06:01:44;;;;;;;5.10;2.00;;;;;;;19.53;46.93;101883.47;5096168;28;20391;-66
2022/06/04 06:04:13;;;;;;;4.35;1.92;;;;;;;19.53;47.14;101880.81;5096278;28;20161;-67
2022/06/04 06:06:41;;;;;;;4.75;1.83;;;;;;;19.54;47.16;101884.34;5095791;28;20024;-67
2022/06/04 06:09:12;;;;;;;5.85;1.98;;;;;;;19.55;47.28;101883.38;5095992;28;20020;-67
2022/06/04 06:11:40;;;;;;;3.30;1.88;;;;;;;19.53;47.34;101880.81;5095985;28;20108;-66
2022/06/04 06:14:07;;;;;;;3.20;1.80;;;;;;;19.55;47.50;101878.06;5095880;28;20020;-67
2022/06/04 06:16:34;;;;;;;3.40;1.77;;;;;;;19.55;47.67;101880.72;5096170;28;20029;-67
2022/06/04 06:19:07;;;;;;;4.55;2.00;;;;;;;19.56;47.41;101880.63;5095244;28;20505;-67
2022/06/04 06:21:34;;;;;;;6.55;2.10;;;;;;;19.57;47.49;101873.53;5095344;28;20028;-66
2022/06/04 06:23:59;;;;;;;3.90;1.90;;;;;;;19.59;47.46;101876.91;5094883;28;20085;-66
2022/06/04 06:26:33;;;;;;;4.60;2.00;;;;;;;19.60;47.63;101872.47;5094277;28;20024;-67
2022/06/04 06:29:00;;;;;;;;;;;;;;;19.61;47.56;101882.94;5095881;28;20024;-69
2022/06/04 06:31:26;;;;;;;3.75;1.80;;;;;;;19.61;47.80;101877.66;5095544;28;19912;-67
2022/06/04 06:33:52;;;;;;;5.03;2.10;;;;;;;19.61;47.86;101890.88;5094139;28;20040;-70
2022/06/04 06:36:19;;;;;;;4.47;2.08;;;;;;;19.63;47.56;101898.69;5095451;28;20144;-67
2022/06/04 06:38:47;;;;;;;4.55;1.90;;;;;;;19.63;47.87;101902.19;5095726;28;20030;-68
2022/06/04 06:41:14;;;;;;;4.15;2.00;;;;;;;19.64;48.03;101898.59;5094702;28;20551;-70
2022/06/04 06:43:46;;;;;;;4.25;1.75;;;;;;;19.65;48.18;101902.94;5095779;28;20062;-66
2022/06/04 06:46:24;;;;;;;6.03;2.42;;;;;;;19.66;48.18;101898.47;5095751;28;20065;-68
2022/06/04 06:48:55;;;;;;;3.70;1.88;;;;;;;19.69;48.28;101903.53;5094854;28;20470;-67
2022/06/04 06:51:30;;;;;;;4.32;2.08;;;;;;;19.69;48.22;101914.13;5095176;28;20464;-68
2022/06/04 06:53:55;;;;;;;4.22;2.00;;;;;;;19.68;48.35;101904.53;5094796;28;20024;-71
2022/06/04 06:56:28;;;;;;;5.63;1.88;;;;;;;19.70;48.46;101907.91;5094069;28;20043;-66
2022/06/04 06:58:58;;;;;;;4.10;1.90;;;;;;;19.71;48.29;101904.28;5094395;28;20020;-64
2022/06/04 07:01:26;;;;;;;3.80;1.80;;;;;;;19.71;48.70;101898.97;5093302;28;20023;-64
2022/06/04 07:03:52;;;;;;;4.38;1.85;;;;;;;19.72;48.46;101904.16;5093498;28;20028;-63
2022/06/04 07:06:27;;;;;;;3.65;1.92;;;;;;;19.74;48.71;101901.41;5093669;28;20031;-65
2022/06/04 07:08:52;;;;;;;3.45;2.00;;;;;;;19.74;48.81;101909.34;5092728;28;20116;-64
2022/06/04 07:11:20;;;;;;;4.13;1.90;;;;;;;19.74;48.90;101898.75;5093954;28;20099;-64
2022/06/04 07:13:46;;;;;;;3.50;1.80;;;;;;;19.75;49.03;101903.13;5093507;28;20424;-63
2022/06/04 07:16:11;;;;;;;4.65;2.35;;;;;;;19.77;48.85;101905.69;5092451;28;20529;-65
2022/06/04 07:18:36;;;;;;;3.80;2.20;;;;;;;19.76;48.87;101907.50;5094285;28;20024;-65
2022/06/04 07:21:04;;;;;;;6.32;2.00;;;;;;;19.76;48.72;101912.78;5093087;28;20023;-65
2022/06/04 07:23:33;;;;;;;4.80;2.72;;;;;;;19.75;49.13;101917.16;5092975;28;20020;-64
2022/06/04 07:25:59;;;;;;;5.40;2.00;;;;;;;19.75;48.89;101917.16;5093493;28;20030;-64
2022/06/04 07:28:25;;;;;;;4.90;2.03;;;;;;;19.75;48.99;101911.88;5093250;28;20024;-64
2022/06/04 07:30:54;;;;;;;6.45;2.50;;;;;;;19.76;49.01;101912.78;5092445;28;20353;-64
2022/06/04 07:33:20;;;;;;;5.95;2.40;;;;;;;19.75;48.80;101911.88;5093114;28;20020;-66
2022/06/04 07:35:47;;;;;;;4.38;2.00;;;;;;;19.75;48.80;101914.53;5094363;28;20540;-66
2022/06/04 07:38:12;;;;;;;5.60;1.92;;;;;;;19.78;49.05;101920.59;5094077;28;20020;-66
2022/06/04 07:40:38;;;;;;;4.43;2.40;;;;;;;19.76;48.98;101931.28;5093715;28;20467;-66
2022/06/04 07:43:04;;;;;;;3.50;2.13;;;;;;;19.75;49.02;101934.84;5093832;28;20028;-66
2022/06/04 07:45:29;;;;;;;4.22;2.30;;;;;;;19.76;48.95;101944.53;5093678;28;20023;-66
2022/06/04 07:47:54;;;;;;;5.10;2.13;;;;;;;19.76;48.88;101939.22;5093884;28;20113;-68
2022/06/04 07:50:19;;;;;;;4.40;1.92;;;;;;;19.77;48.93;101937.41;5093533;28;20115;-69
2022/06/04 07:52:45;;;;;;;3.80;1.92;;;;;;;19.76;48.92;101931.28;5094321;28;20032;-66
2022/06/04 07:55:10;;;;;;;4.85;2.42;;;;;;;19.77;48.83;101924.19;5094304;28;20016;-69
2022/06/04 07:57:37;;;;;;;4.57;2.17;;;;;;;19.76;48.94;101920.72;5094147;28;20031;-67
2022/06/04 08:00:05;;;;;;;3.95;1.98;;;;;;;19.77;48.93;101932.13;5093954;28;20483;-66
2022/06/04 08:02:33;;;;;;;7.97;2.47;;;;;;;19.78;49.20;101933.84;5094126;28;20030;-67
2022/06/04 08:04:58;;;;;;;4.45;2.40;;;;;;;19.78;49.12;101925.91;5093670;28;20028;-66
2022/06/04 08:07:24;;;;;;;3.88;2.00;;;;;;;19.79;49.10;101928.44;5095609;28;20021;-69
2022/06/04 08:09:50;;;;;;;4.63;2.00;;;;;;;19.78;48.92;101928.53;5098395;28;20042;-68
2022/06/04 08:12:16;;;;;;;5.25;2.50;;;;;;;19.80;48.86;101930.09;5098137;28;20477;-66
2022/06/04 08:14:42;;;;;;;5.53;2.28;;;;;;;19.82;49.30;101927.34;5098444;28;20031;-68
2022/06/04 08:17:11;;;;;;;5.13;2.38;;;;;;;19.81;49.12;101918.56;5098427;28;20376;-67
2022/06/04 08:19:37;;;;;;;8.25;3.35;;;;;;;19.80;49.04;101919.53;5097200;28;20108;-67
2022/06/04 08:22:04;;;;;;;5.18;2.30;;;;;;;19.81;49.28;101923.88;5097862;28;20060;-67
2022/06/04 08:24:32;;;;;;;4.55;2.22;;;;;;;19.83;49.38;101923.75;5097909;28;20050;-67
2022/06/04 08:26:59;;;;;;;4.57;2.33;;;;;;;19.83;49.58;101910.53;5096679;28;20536;-65
2022/06/04 08:29:26;;;;;;;5.20;2.20;;;;;;;19.83;49.41;101906.06;5098266;28;20024;-67
2022/06/04 08:31:52;;;;;;;4.95;2.45;;;;;;;19.83;49.65;101895.50;5097843;28;20031;-66
2022/06/04 08:34:17;;;;;;;6.03;2.83;;;;;;;19.84;49.56;101896.38;5096787;28;20036;-66
2022/06/04 08:36:46;;;;;;;5.90;2.35;;;;;;;19.85;49.83;101905.97;5097657;28;20028;-64
2022/06/04 08:39:11;;;;;;;4.80;2.22;;;;;;;19.87;49.63;101912.84;5097321;28;20097;-66
2022/06/04 08:41:51;;;;;;;5.85;2.38;;;;;;;19.88;49.72;101919.81;5097288;28;20467;-67
2022/06/04 08:44:44;;;;;;;7.07;2.70;;;;;;;19.89;49.76;101918.03;5097932;28;20024;-66
2022/06/04 08:47:25;;;;;;;4.55;2.47;;;;;;;19.88;49.68;101918.97;5093455;28;20472;-66
2022/06/04 08:50:13;;;;;;;6.57;2.13;;;;;;;19.89;49.65;101921.50;5097252;28;20032;-67
2022/06/04 08:52:45;;;;;;;6.18;3.15;;;;;;;19.88;49.51;101918.97;5097354;28;20543;-68
2022/06/04 08:58:34;;;;;;;4.82;2.20;;;;;;;19.89;49.55;101937.38;5096438;28;20451;-63
2022/06/04 09:01:25;;;;;;;5.35;2.40;;;;;;;19.91;49.52;101935.47;5095954;28;20026;-64
2022/06/04 09:04:03;;;;;;;6.25;2.60;;;;;;;19.91;49.32;101938.13;5087072;28;20077;-69
2022/06/04 09:06:53;;;;;;;8.40;2.78;;;;;;;19.93;49.34;101935.34;5096532;28;20384;-62
2022/06/04 09:09:28;;;;;;;5.18;2.50;;;;;;;19.95;49.37;101925.53;5096233;28;20023;-66
2022/06/04 09:12:01;;;;;;;10.00;2.90;;;;;;;19.96;49.14;101931.66;5095584;28;20056;-63
2022/06/04 09:14:38;;;;;;;5.22;2.60;;;;;;;19.97;49.26;101928.06;5096177;28;20051;-63
2022/06/04 09:17:10;;;;;;;9.68;3.00;;;;;;;19.96;49.27;101935.13;5095654;28;20024;-66
2022/06/04 09:19:40;;;;;;;9.15;2.90;;;;;;;20.00;49.39;101930.50;5094733;28;20027;-67
2022/06/04 09:22:17;;;;;;;7.07;3.05;;;;;;;20.01;49.21;101926.88;5094385;28;20035;-61
2022/06/04 09:24:45;;;;;;;9.50;3.00;;;;;;;20.02;49.30;101929.41;5095262;28;20039;-67
2022/06/04 09:27:32;;;;;;;8.00;3.50;;;;;;;20.05;49.31;101928.34;5094790;28;20032;-68
2022/06/04 09:30:39;;;;;;;5.30;2.72;;;;;;;20.05;49.21;101931.84;5094436;28;20055;-68
2022/06/04 09:33:10;;;;;;;9.88;3.03;;;;;;;20.07;49.22;101937.00;5065474;28;20040;-68
2022/06/04 09:35:38;;;;;;;5.07;2.80;;;;;;;20.07;49.29;101924.63;5094687;28;20039;-68
2022/06/04 09:38:03;;;;;;;6.32;3.45;;;;;;;20.09;49.49;101927.16;5095085;28;20020;-70
2022/06/04 09:40:32;;;;;;;8.35;3.17;;;;;;;20.09;49.48;101928.03;5095358;28;20031;-73
2022/06/04 09:43:24;;;;;;;6.95;3.03;;;;;;;20.10;49.32;101926.22;5093991;28;20350;-70
2022/06/04 09:45:52;;;;;;;5.97;2.92;;;;;;;20.10;49.61;101937.63;5090837;28;20514;-71
2022/06/04 09:48:35;;;;;;;6.90;2.80;;;;;;;20.08;49.63;101936.06;5095301;28;20437;-72
2022/06/04 09:51:05;;;;;;;9.90;3.50;;;;;;;20.08;49.89;101944.00;5094032;28;20027;-72
2022/06/04 09:53:41;;;;;;;8.00;3.30;;;;;;;20.07;49.81;101937.84;5094936;28;20028;-68
2022/06/04 09:56:16;;;;;;;5.68;3.08;;;;;;;20.07;49.70;101929.06;5094786;28;20590;-66
2022/06/04 09:58:44;;;;;;;7.30;2.92;;;;;;;20.08;49.56;101934.25;5095747;28;20054;-70
2022/06/04 10:01:23;;;;;;;4.50;2.92;;;;;;;20.09;49.82;101938.59;5099564;28;20028;-69
2022/06/04 10:04:11;;;;;;;7.00;3.60;;;;;;;20.10;49.85;101942.91;5098219;28;20471;-66
2022/06/04 10:06:37;;;;;;;5.00;2.83;;;;;;;20.10;50.33;101942.91;5096503;28;20055;-69
2022/06/04 10:11:59;;;;;;;6.30;2.90;;;;;;;20.14;50.06;101953.28;5094278;28;20077;-68
2022/06/04 10:14:31;;;;;;;5.57;3.03;;;;;;;20.15;50.10;101942.59;5094839;28;20032;-67
2022/06/04 10:16:57;;;;;;;5.82;3.22;;;;;;;20.18;50.14;101955.59;5093848;28;20028;-67
2022/06/04 10:19:24;;;;;;;10.27;3.17;;;;;;;20.20;50.41;101945.78;5093685;28;20111;-67
2022/06/04 10:22:10;;;;;;;6.18;2.85;;;;;;;20.21;50.09;101952.75;5094130;28;20031;-68
2022/06/04 10:24:47;;;;;;;7.45;2.90;;;;;;;20.23;50.18;101949.97;5094315;28;20024;-69
2022/06/04 10:27:23;;;;;;;7.05;2.97;;;;;;;20.25;50.09;101953.34;5093077;28;20039;-68
2022/06/04 10:30:13;;;;;;;6.38;3.17;;;;;;;20.26;50.53;101945.28;5093643;28;20024;-67
2022/06/04 10:32:59;;;;;;;7.60;4.18;;;;;;;20.28;50.63;101948.69;5093262;28;20059;-67
2022/06/04 10:35:43;;;;;;;9.23;3.40;;;;;;;20.32;50.77;101948.47;5093574;28;20044;-69
2022/06/04 10:38:20;;;;;;;8.60;3.80;;;;;;;20.33;50.79;101958.09;5093608;28;20131;-69
2022/06/04 10:40:59;;;;;;;9.52;4.40;;;;;;;20.31;50.73;101952.91;5093010;28;20460;-72
2022/06/04 10:43:43;;;;;;;10.82;4.35;;;;;;;20.30;51.15;101948.59;5093825;28;20028;-72
2022/06/04 10:46:23;;;;;;;9.70;4.43;;;;;;;20.30;50.96;101946.78;5092801;28;20488;-74
2022/06/04 10:49:13;;;;;;;9.88;4.45;;;;;;;20.34;51.10;101957.16;5093353;28;20548;-70
2022/06/04 10:51:44;;;;;;;7.63;4.28;;;;;;;20.35;51.34;101957.03;5093718;28;20085;-72
2022/06/04 10:54:27;;;;;;;6.30;4.43;;;;;;;20.37;51.46;101962.22;5092600;28;20105;-69
2022/06/04 10:57:32;;;;;;;7.38;4.60;;;;;;;20.37;51.69;101951.63;5093186;28;20031;-72
2022/06/04 11:00:12;;;;;;;9.10;4.97;;;;;;;20.38;51.52;101945.38;5093150;28;20048;-69
2022/06/04 11:03:08;;;;;;;9.50;4.30;;;;;;;20.39;51.80;101952.34;5093423;28;20020;-67
2022/06/04 11:05:47;;;;;;;7.13;4.72;;;;;;;20.40;51.90;101959.34;5092256;28;20036;-68
2022/06/04 11:08:46;;;;;;;9.63;4.88;;;;;;;20.41;51.78;101955.72;5092337;28;20067;-68
2022/06/04 11:11:47;;;;;;;11.82;5.15;;;;;;;20.39;50.81;101955.00;5077361;28;20131;-68
2022/06/04 11:14:20;;;;;;;11.77;5.95;;;;;;;20.39;50.00;101949.69;5079417;28;20043;-69
2022/06/04 11:16:59;;;;;;;9.60;5.57;;;;;;;20.41;50.44;101958.38;5095084;28;20028;-68
2022/06/04 11:19:37;;;;;;;10.48;5.10;;;;;;;20.40;50.31;101964.63;5094839;28;20031;-68
2022/06/04 11:22:31;;;;;;;8.98;4.97;;;;;;;20.42;49.93;101962.72;5092455;28;20020;-67
2022/06/04 11:25:24;;;;;;;9.23;5.25;;;;;;;20.43;49.95;101956.47;5020659;28;20116;-66
2022/06/04 11:27:54;;;;;;;8.13;6.00;;;;;;;20.45;49.41;101960.69;5082279;28;20055;-66
2022/06/04 11:30:43;;;;;;;8.88;5.38;;;;;;;20.46;49.41;101958.91;5092362;28;20082;-70
2022/06/04 11:33:08;;;;;;;7.97;5.40;;;;;;;20.48;49.46;101955.16;5092588;28;20471;-66
2022/06/04 11:35:52;;;;;;;10.57;6.20;;;;;;;20.51;49.38;101945.31;5092021;28;20111;-68
2022/06/04 11:38:45;;;;;;;8.38;5.45;;;;;;;20.54;49.26;101948.56;5092869;28;20279;-68
2022/06/04 11:41:38;;;;;;;8.35;4.97;;;;;;;20.55;49.65;101939.66;5092617;28;20483;-69
2022/06/04 11:44:22;;;;;;;8.50;5.75;;;;;;;20.58;49.36;101931.47;5091566;28;20471;-69
2022/06/04 11:47:06;;;;;;;;;;;;;;;20.59;49.08;101935.84;5093474;28;20111;-69
2022/06/04 11:49:42;;;;;;;8.02;5.03;;;;;;;20.60;48.95;101928.72;5091949;28;20020;-68
2022/06/04 11:52:27;;;;;;;7.38;5.15;;;;;;;20.61;48.82;101930.41;5092396;28;20028;-68
2022/06/04 11:55:19;;;;;;;8.60;5.00;;;;;;;20.63;48.75;101929.34;5092106;28;20468;-69
2022/06/04 11:58:12;;;;;;;8.35;5.32;;;;;;;20.65;48.81;101923.97;5092085;28;20075;-68
2022/06/04 12:00:40;;;;;;;9.73;5.30;;;;;;;20.66;48.92;101925.66;5092609;28;20111;-70
2022/06/04 12:03:28;;;;;;;6.68;4.85;;;;;;;20.68;48.62;101923.75;5092271;28;20089;-68
2022/06/04 12:06:04;;;;;;;10.35;5.10;;;;;;;20.68;48.95;101917.59;5092120;28;20066;-67